Time;durP1;ratioP1;P1;durP2;ratioP2;P2;SDS_P1;SDS_P2;PMS_P1;PMS_P2;Temp;Humidity;BMP_temperature;BMP_pressure;BME280_temperature;BME280_humidity;BME280_pressure;Samples;Min_cycle;Max_cycle;Signal;HPM_P1;HPM_P2
2022/03/05 00:01:50;;;;;;;;;;;;;;;0.01;67.82;98802.66;5070762;28;19921;-58
2022/03/05 00:04:15;;;;;;;;;;;;;;;0.04;68.01;98800.47;5069101;28;19935;-59
2022/03/05 00:06:41;;;;;;;;;;;;;;;0.09;68.36;98808.56;5072669;28;19924;-60
2022/03/05 00:09:07;;;;;;;;;;;;;;;0.03;69.01;98795.44;5071282;28;20424;-60
2022/03/05 00:11:33;;;;;;;;;;;;;;;0.06;68.80;98798.50;5070903;28;19924;-58
2022/03/05 00:13:59;;;;;;;;;;;;;;;0.06;69.20;98798.50;5072289;28;20039;-59
2022/03/05 00:16:24;;;;;;;;;;;;;;;0.04;71.19;98792.66;5070837;28;20454;-59
2022/03/05 00:18:50;;;;;;;;;;;;;;;0.02;70.67;98792.03;5072419;28;19947;-61
2022/03/05 00:21:16;;;;;;;;;;;;;;;0.01;71.83;98795.63;5072454;28;19948;-58
2022/03/05 00:23:42;;;;;;;;;;;;;;;-0.04;71.33;98798.78;5070404;28;20422;-62
2022/03/05 00:26:08;;;;;;;;;;;;;;;-0.08;71.61;98799.34;5072387;28;19979;-59
2022/03/05 00:28:33;;;;;;;;;;;;;;;-0.09;71.73;98808.13;5072216;28;19928;-60
2022/03/05 00:31:00;;;;;;;;;;;;;;;-0.11;71.71;98797.09;5070449;28;19932;-60
2022/03/05 00:33:26;;;;;;;;;;;;;;;-0.20;72.25;98790.41;5071923;28;20326;-59
2022/03/05 00:35:52;;;;;;;;;;;;;;;-0.17;71.73;98795.25;5069010;28;19924;-58
2022/03/05 00:38:17;;;;;;;;;;;;;;;-0.17;71.86;98795.25;5071020;28;19951;-59
2022/03/05 00:40:44;;;;;;;;;;;;;;;-0.16;71.55;98789.81;5071675;28;19931;-57
2022/03/05 00:43:10;;;;;;;;;;;;;;;-0.16;71.24;98794.25;5041556;28;19929;-59
2022/03/05 00:45:36;;;;;;;;;;;;;;;-0.15;71.34;98791.44;5050633;28;20371;-57
2022/03/05 00:48:02;;;;;;;;;;;;;;;-0.19;71.73;98789.38;5052040;28;20016;-60
2022/03/05 00:50:27;;;;;;;;;;;;;;;-0.05;71.80;98804.19;5051623;28;20027;-59
2022/03/05 00:52:53;;;;;;;;;;;;;;;-0.10;71.49;98809.13;5052052;28;20134;-60
2022/03/05 00:55:19;;;;;;;;;;;;;;;-0.13;71.71;98804.28;5051945;28;19932;-59
2022/03/05 00:57:45;;;;;;;;;;;;;;;-0.02;71.32;98811.63;5052191;28;19924;-58
2022/03/05 01:00:11;;;;;;;;;;;;;;;-0.01;71.50;98816.66;5051988;28;19930;-59
2022/03/05 01:02:37;;;;;;;;;;;;;;;-0.15;71.38;98806.25;5052897;28;20520;-58
2022/03/05 01:05:03;;;;;;;;;;;;;;;-0.10;71.60;98803.94;5050377;28;19929;-59
2022/03/05 01:07:29;;;;;;;;;;;;;;;-0.17;71.70;98811.66;5052004;28;19924;-59
2022/03/05 01:09:55;;;;;;;;;;;;;;;-0.19;71.48;98829.25;5051722;28;19928;-60
2022/03/05 01:12:22;;;;;;;;;;;;;;;-0.16;71.42;98799.44;5051881;28;20567;-60
2022/03/05 01:14:47;;;;;;;;;;;;;;;-0.10;71.23;98806.53;5051661;28;19964;-59
2022/03/05 01:17:13;;;;;;;;;;;;;;;-0.15;70.80;98811.47;5050434;28;19975;-59
2022/03/05 01:19:39;;;;;;;;;;;;;;;-0.20;70.88;98811.22;5051346;28;19936;-59
2022/03/05 01:22:05;;;;;;;;;;;;;;;-0.24;71.17;98805.56;5051507;28;19925;-59
2022/03/05 01:24:30;;;;;;;;;;;;;;;-0.26;71.46;98815.38;5050522;28;19963;-61
2022/03/05 01:26:56;;;;;;;;;;;;;;;-0.13;70.30;98806.91;5051634;28;20346;-60
2022/03/05 01:29:22;;;;;;;;;;;;;;;-0.16;69.79;98804.66;5051577;28;19936;-59
2022/03/05 01:31:47;;;;;;;;;;;;;;;-0.18;69.58;98791.78;5050076;28;19947;-61
2022/03/05 01:34:13;;;;;;;;;;;;;;;-0.15;69.83;98814.88;5051594;28;19936;-60
2022/03/05 01:36:38;;;;;;;;;;;;;;;-0.21;69.29;98809.59;5051178;28;19925;-59
2022/03/05 01:39:04;;;;;;;;;;;;;;;-0.21;69.19;98799.19;5050125;28;19928;-61
2022/03/05 01:41:30;;;;;;;;;;;;;;;-0.17;69.66;98792.63;5051624;28;19925;-59
2022/03/05 01:43:57;;;;;;;;;;;;;;;-0.21;69.63;98791.38;5051376;28;19935;-60
2022/03/05 01:46:32;;;;;;;;;;;;;;;-0.10;69.01;98789.09;5051444;28;19925;-60
2022/03/05 01:48:57;;;;;;;;;;;;;;;-0.13;68.97;98802.47;5051114;28;19928;-63
2022/03/05 01:51:23;;;;;;;;;;;;;;;-0.09;68.69;98792.50;5051396;28;19931;-58
2022/03/05 01:53:49;;;;;;;;;;;;;;;-0.07;68.53;98795.75;5049946;28;19928;-60
2022/03/05 01:56:14;;;;;;;;;;;;;;;-0.13;68.20;98799.06;5054132;28;20334;-58
2022/03/05 01:58:40;;;;;;;;;;;;;;;-0.05;68.95;98798.97;5053520;28;19935;-58
2022/03/05 02:01:06;;;;;;;;;;;;;;;-0.15;69.52;98807.06;5055115;28;19959;-60
2022/03/05 02:03:31;;;;;;;;;;;;;;;-0.07;69.05;98808.75;5070601;28;20034;-61
2022/03/05 02:05:57;;;;;;;;;;;;;;;-0.06;69.75;98811.22;5074382;28;19932;-61
2022/03/05 02:08:23;;;;;;;;;;;;;;;-0.21;70.51;98801.78;5074895;28;19929;-60
2022/03/05 02:10:58;;;;;;;;;;;;;;;-0.31;71.17;98812.50;5067989;28;19990;-60
2022/03/05 02:13:26;;;;;;;;;;;;;;;-0.28;71.31;98812.94;5054738;28;20501;-60
2022/03/05 02:15:55;;;;;;;;;;;;;;;-0.25;70.90;98822.19;5054729;28;19924;-62
2022/03/05 02:18:22;;;;;;;;;;;;;;;-0.28;71.08;98810.31;5036707;28;19935;-58
2022/03/05 02:20:49;;;;;;;;;;;;;;;-0.30;70.69;98824.50;5054636;28;19932;-60
2022/03/05 02:23:14;;;;;;;;;;;;;;;-0.26;70.31;98823.19;5054579;28;19929;-60
2022/03/05 02:25:49;;;;;;;;;;;;;;;-0.25;70.56;98816.97;5054503;28;19932;-60
2022/03/05 02:28:15;;;;;;;;;;;;;;;-0.31;70.75;98822.91;5053166;28;19929;-58
2022/03/05 02:30:41;;;;;;;;;;;;;;;-0.41;72.39;98831.00;5057954;28;19935;-61
2022/03/05 02:33:08;;;;;;;;;;;;;;;-0.40;72.24;98835.22;5074229;28;20487;-59
2022/03/05 02:35:34;;;;;;;;;;;;;;;-0.41;72.27;98836.22;5074117;28;19925;-62
2022/03/05 02:37:59;;;;;;;;;;;;;;;-0.41;72.22;98832.78;5074408;28;19928;-61
2022/03/05 02:40:26;;;;;;;;;;;;;;;-0.34;72.27;98831.09;5073893;28;20066;-60
2022/03/05 02:42:51;;;;;;;;;;;;;;;-0.37;72.46;98841.88;5071925;28;20393;-60
2022/03/05 02:45:17;;;;;;;;;;;;;;;-0.33;71.56;98828.28;5072815;28;20023;-60
2022/03/05 02:47:43;;;;;;;;;;;;;;;-0.37;71.73;98831.44;5074413;28;19950;-60
2022/03/05 02:50:08;;;;;;;;;;;;;;;-0.54;71.18;98841.22;5073828;28;19928;-60
2022/03/05 02:52:34;;;;;;;;;;;;;;;-0.56;70.92;98835.38;5055402;28;19925;-58
2022/03/05 02:54:59;;;;;;;;;;;;;;;-0.56;70.82;98830.16;5053574;28;20313;-59
2022/03/05 02:57:25;;;;;;;;;;;;;;;-0.67;70.99;98838.44;5054250;28;20422;-60
2022/03/05 02:59:51;;;;;;;;;;;;;;;-0.69;70.67;98833.41;5053262;28;19933;-60
2022/03/05 03:02:17;;;;;;;;;;;;;;;-0.70;70.77;98845.63;5054124;28;19928;-61
2022/03/05 03:04:42;;;;;;;;;;;;;;;-0.74;70.50;98838.34;5053831;28;19933;-60
2022/03/05 03:07:08;;;;;;;;;;;;;;;-0.81;70.49;98829.63;5053279;28;19924;-58
2022/03/05 03:09:33;;;;;;;;;;;;;;;-0.80;69.42;98837.25;5053626;28;19928;-61
2022/03/05 03:11:59;;;;;;;;;;;;;;;-0.81;69.12;98829.63;5063781;28;20378;-60
2022/03/05 03:14:24;;;;;;;;;;;;;;;-0.90;69.62;98841.09;5073733;28;20043;-59
2022/03/05 03:16:50;;;;;;;;;;;;;;;-0.82;68.33;98847.03;5073638;28;20031;-60
2022/03/05 03:19:16;;;;;;;;;;;;;;;-0.77;68.37;98839.50;5072809;28;19936;-59
2022/03/05 03:21:41;;;;;;;;;;;;;;;-0.86;68.41;98840.56;5053619;28;20374;-59
2022/03/05 03:24:07;;;;;;;;;;;;;;;-0.83;68.53;98849.81;5053215;28;19935;-62
2022/03/05 03:26:32;;;;;;;;;;;;;;;-0.89;69.12;98850.53;5051936;28;19931;-58
2022/03/05 03:28:58;;;;;;;;;;;;;;;-0.85;68.88;98843.97;5053323;28;19929;-61
2022/03/05 03:31:24;;;;;;;;;;;;;;;-0.90;68.23;98847.09;5058515;28;19925;-60
2022/03/05 03:33:49;;;;;;;;;;;;;;;-0.89;67.82;98866.94;5073117;28;19929;-60
2022/03/05 03:36:15;;;;;;;;;;;;;;;-0.95;67.64;98871.03;5072910;28;19924;-58
2022/03/05 03:38:40;;;;;;;;;;;;;;;-0.97;66.88;98882.59;5073225;28;20002;-59
2022/03/05 03:41:06;;;;;;;;;;;;;;;-1.07;66.41;98862.03;5072577;28;19925;-59
2022/03/05 03:43:32;;;;;;;;;;;;;;;-1.04;66.09;98866.09;5072998;28;20010;-58
2022/03/05 03:45:57;;;;;;;;;;;;;;;-0.94;66.61;98864.06;5072969;28;19920;-60
2022/03/05 03:48:23;;;;;;;;;;;;;;;-0.93;66.16;98870.88;5071468;28;19939;-61
2022/03/05 03:50:48;;;;;;;;;;;;;;;-0.92;65.16;98877.69;5071852;28;20421;-59
2022/03/05 03:53:14;;;;;;;;;;;;;;;-1.03;63.37;98906.72;5073029;28;19967;-61
2022/03/05 03:55:40;;;;;;;;;;;;;;;-1.09;63.47;98878.81;5072890;28;19931;-59
2022/03/05 03:58:06;;;;;;;;;;;;;;;-1.01;63.64;98876.16;5072855;28;20014;-59
2022/03/05 04:00:31;;;;;;;;;;;;;;;-1.09;62.71;98913.44;5072447;28;19973;-59
2022/03/05 04:02:57;;;;;;;;;;;;;;;-1.08;62.69;98872.63;5072759;28;19951;-60
2022/03/05 04:05:22;;;;;;;;;;;;;;;-1.05;62.08;98878.28;5072297;28;19929;-60
2022/03/05 04:10:32;;;;;;;;;;;;;;;-1.14;62.42;98884.53;5071095;28;20028;-58
2022/03/05 04:12:58;;;;;;;;;;;;;;;-1.15;62.21;98873.34;5052598;28;20485;-60
2022/03/05 04:15:24;;;;;;;;;;;;;;;-1.13;62.52;98874.94;5052122;28;20318;-58
2022/03/05 04:17:50;;;;;;;;;;;;;;;-1.12;62.05;98887.75;5050747;28;19990;-60
2022/03/05 04:20:16;;;;;;;;;;;;;;;-1.14;62.02;98905.34;5051502;28;19925;-60
2022/03/05 04:22:41;;;;;;;;;;;;;;;-1.22;62.40;98898.41;5051244;28;19935;-59
2022/03/05 04:25:07;;;;;;;;;;;;;;;-1.26;62.72;98894.56;5052031;28;19928;-60
2022/03/05 04:27:33;;;;;;;;;;;;;;;-1.25;62.37;98888.34;5052467;28;19967;-59
2022/03/05 04:29:59;;;;;;;;;;;;;;;-1.23;62.98;98896.00;5052369;28;20412;-58
2022/03/05 04:32:25;;;;;;;;;;;;;;;-1.22;62.73;98895.00;5052380;28;19931;-60
2022/03/05 04:34:51;;;;;;;;;;;;;;;-1.18;62.95;98906.66;5052088;28;19939;-59
2022/03/05 04:37:16;;;;;;;;;;;;;;;-1.16;62.76;98902.91;5051635;28;20019;-58
2022/03/05 04:39:42;;;;;;;;;;;;;;;-1.20;62.98;98908.66;5051931;28;19955;-61
2022/03/05 04:42:07;;;;;;;;;;;;;;;-1.22;62.56;98931.41;5050801;28;20378;-59
2022/03/05 04:44:33;;;;;;;;;;;;;;;-1.20;62.47;98908.66;5053009;28;19974;-59
2022/03/05 04:46:59;;;;;;;;;;;;;;;-1.34;62.28;98927.59;5051993;28;19925;-59
2022/03/05 04:49:24;;;;;;;;;;;;;;;-1.37;62.50;98926.13;5051958;28;19928;-59
2022/03/05 04:51:50;;;;;;;;;;;;;;;-1.37;63.04;98924.34;5050111;28;19943;-59
2022/03/05 04:54:16;;;;;;;;;;;;;;;-1.32;63.29;98904.81;5051786;28;19929;-60
2022/03/05 04:56:42;;;;;;;;;;;;;;;-1.31;62.94;98927.25;5051268;28;19928;-60
2022/03/05 04:59:07;;;;;;;;;;;;;;;-1.39;62.99;98922.91;5063522;28;20362;-62
2022/03/05 05:01:33;;;;;;;;;;;;;;;-1.29;63.20;98915.69;5052353;28;19924;-62
2022/03/05 05:03:59;;;;;;;;;;;;;;;-1.27;63.49;98918.13;5051187;28;20398;-60
2022/03/05 05:06:24;;;;;;;;;;;;;;;-1.13;63.32;98922.56;5051679;28;19920;-60
2022/03/05 05:08:50;;;;;;;;;;;;;;;-1.23;63.99;98922.81;5059138;28;19929;-61
2022/03/05 05:11:16;;;;;;;;;;;;;;;-1.23;64.30;98922.81;5051352;28;19948;-61
2022/03/05 05:13:42;;;;;;;;;;;;;;;-1.22;64.07;98940.03;5051390;28;19940;-60
2022/03/05 05:16:07;;;;;;;;;;;;;;;-1.23;64.25;98928.00;5050867;28;20017;-61
2022/03/05 05:18:33;;;;;;;;;;;;;;;-1.13;64.53;98939.97;5058855;28;19964;-63
2022/03/05 05:21:01;;;;;;;;;;;;;;;-1.16;64.94;98935.91;5073072;28;19931;-62
2022/03/05 05:23:29;;;;;;;;;;;;;;;-1.21;64.98;98938.22;5037055;28;19935;-61
2022/03/05 05:25:55;;;;;;;;;;;;;;;-1.09;65.32;98943.84;5069733;28;20113;-61
2022/03/05 05:28:22;;;;;;;;;;;;;;;-1.21;65.60;98946.81;5070630;28;19928;-61
2022/03/05 05:30:48;;;;;;;;;;;;;;;-1.23;65.52;98955.81;5055113;28;20436;-60
2022/03/05 05:33:13;;;;;;;;;;;;;;;-1.26;65.74;98953.56;5075077;28;20329;-62
2022/03/05 05:35:39;;;;;;;;;;;;;;;-1.22;65.86;98960.81;5068765;28;19925;-60
2022/03/05 05:38:04;;;;;;;;;;;;;;;-1.17;65.23;98973.31;5055515;28;20424;-59
2022/03/05 05:40:30;;;;;;;;;;;;;;;-1.22;65.77;98973.81;5055055;28;19924;-62
2022/03/05 05:42:56;;;;;;;;;;;;;;;-1.18;65.07;98963.88;5055078;28;20322;-61
2022/03/05 05:45:21;;;;;;;;;;;;;;;-1.06;65.04;98943.50;5056128;28;21620;-60
2022/03/05 05:47:47;;;;;;;;;;;;;;;-1.09;65.09;98960.25;5072470;28;19929;-60
2022/03/05 05:50:12;;;;;;;;;;;;;;;-1.03;64.79;98961.34;5074586;28;19931;-61
2022/03/05 05:52:39;;;;;;;;;;;;;;;-1.01;65.00;98957.59;5070232;28;20051;-60
2022/03/05 05:55:04;;;;;;;;;;;;;;;-0.95;64.76;98969.09;5069676;28;20010;-60
2022/03/05 05:57:30;;;;;;;;;;;;;;;-1.09;64.59;98959.44;5055016;28;19956;-61
2022/03/05 05:59:55;;;;;;;;;;;;;;;-1.13;64.99;98979.00;5070765;28;19927;-60
2022/03/05 06:02:22;;;;;;;;;;;;;;;-1.10;64.92;98958.63;5071761;28;19928;-61
2022/03/05 06:04:47;;;;;;;;;;;;;;;-1.03;64.60;98963.94;5070994;28;20386;-61
2022/03/05 06:07:13;;;;;;;;;;;;;;;-1.00;64.66;98956.63;5072627;28;19945;-60
2022/03/05 06:09:38;;;;;;;;;;;;;;;-0.87;64.13;98968.25;5072176;28;20390;-60
2022/03/05 06:12:04;;;;;;;;;;;;;;;-0.81;64.45;98950.13;5073346;28;19970;-60
2022/03/05 06:14:30;;;;;;;;;;;;;;;-0.90;64.01;98974.59;5053771;28;19935;-60
2022/03/05 06:16:56;;;;;;;;;;;;;;;-0.83;64.03;98967.72;5061518;28;19925;-61
2022/03/05 06:19:21;;;;;;;;;;;;;;;-0.98;64.22;98966.84;5061488;28;19932;-61
2022/03/05 06:21:47;;;;;;;;;;;;;;;-0.93;63.53;98985.38;5071598;28;20340;-59
2022/03/05 06:24:13;;;;;;;;;;;;;;;-0.84;63.92;98970.50;5070420;28;20098;-61
2022/03/05 06:26:39;;;;;;;;;;;;;;;-0.70;63.70;98974.97;5052680;28;19978;-60
2022/03/05 06:29:04;;;;;;;;;;;;;;;-0.60;62.54;98959.09;5069510;28;20099;-58
2022/03/05 06:31:30;;;;;;;;;;;;;;;-0.55;62.68;98957.56;5035929;28;19940;-60
2022/03/05 06:33:55;;;;;;;;;;;;;;;-0.43;62.67;98952.75;5061308;28;19929;-62
2022/03/05 06:36:21;;;;;;;;;;;;;;;-0.37;62.42;98983.28;5050840;28;20096;-61
2022/03/05 06:38:47;;;;;;;;;;;;;;;-0.39;61.88;98974.84;5060347;28;20291;-62
2022/03/05 06:41:12;;;;;;;;;;;;;;;-0.28;61.86;98965.78;5069620;28;19978;-59
2022/03/05 06:43:38;;;;;;;;;;;;;;;-0.42;61.39;99003.84;5070956;28;19929;-59
2022/03/05 06:46:06;;;;;;;;;;;;;;;-0.30;61.13;98978.97;5070998;28;20148;-60
2022/03/05 06:48:32;;;;;;;;;;;;;;;-0.22;61.42;98974.69;5073375;28;19928;-61
2022/03/05 06:50:57;;;;;;;;;;;;;;;-0.18;61.89;98975.94;5072325;28;20287;-60
2022/03/05 06:53:24;;;;;;;;;;;;;;;-0.09;61.49;98969.66;5073124;28;19985;-59
2022/03/05 06:55:50;;;;;;;;;;;;;;;0.09;61.21;98979.72;5072309;28;19974;-59
2022/03/05 06:58:17;;;;;;;;;;;;;;;0.23;60.75;98986.75;5072171;28;19924;-61
2022/03/05 07:00:43;;;;;;;;;;;;;;;0.02;61.31;98999.69;5071557;28;19935;-59
2022/03/05 07:03:09;;;;;;;;;;;;;;;0.17;60.44;98982.25;5055038;28;19924;-58
2022/03/05 07:05:34;;;;;;;;;;;;;;;0.25;59.75;98976.16;5072295;28;19928;-59
2022/03/05 07:08:00;;;;;;;;;;;;;;;0.00;59.75;98984.25;5057135;28;19928;-62
2022/03/05 07:10:25;;;;;;;;;;;;;;;0.01;60.33;98975.44;5052180;28;19989;-59
2022/03/05 07:12:51;;;;;;;;;;;;;;;0.16;60.58;98980.66;5051616;28;20066;-60
2022/03/05 07:15:17;;;;;;;;;;;;;;;0.12;59.54;98975.00;5051105;28;19932;-59
2022/03/05 07:17:46;;;;;;;;;;;;;;;-0.07;60.27;99012.00;5049423;28;19935;-62
2022/03/05 07:20:12;;;;;;;;;;;;;;;-0.14;60.30;98987.66;5034612;28;19925;-59
2022/03/05 07:22:37;;;;;;;;;;;;;;;-0.12;60.50;98983.03;5052226;28;19936;-60
2022/03/05 07:25:03;;;;;;;;;;;;;;;-0.18;60.21;98999.41;5052067;28;20394;-59
2022/03/05 07:27:28;;;;;;;;;;;;;;;-0.28;60.84;99000.47;5052011;28;20032;-60
2022/03/05 07:29:54;;;;;;;;;;;;;;;-0.38;60.95;98991.25;5052127;28;19945;-60
2022/03/05 07:32:20;;;;;;;;;;;;;;;-0.52;61.45;98985.06;5051796;28;19947;-59
2022/03/05 07:34:45;;;;;;;;;;;;;;;-0.49;62.12;98992.53;5051221;28;19994;-61
2022/03/05 07:37:11;;;;;;;;;;;;;;;-0.25;61.02;99002.72;5051572;28;19940;-59
2022/03/05 07:39:36;;;;;;;;;;;;;;;-0.25;60.27;99020.13;5051104;28;20035;-57
2022/03/05 07:42:02;;;;;;;;;;;;;;;-0.21;60.05;99031.81;5052340;28;19935;-59
2022/03/05 07:44:28;;;;;;;;;;;;;;;-0.27;60.26;99009.88;5051395;28;19932;-61
2022/03/05 07:46:53;;;;;;;;;;;;;;;-0.15;60.08;98997.22;5051737;28;20409;-58
2022/03/05 07:49:19;;;;;;;;;;;;;;;-0.21;59.98;98994.53;5051449;28;19932;-58
2022/03/05 07:51:44;;;;;;;;;;;;;;;-0.21;59.18;98990.13;5051191;28;20404;-64
2022/03/05 07:54:11;;;;;;;;;;;;;;;-0.16;59.61;99002.63;5051151;28;19924;-61
2022/03/05 07:56:37;;;;;;;;;;;;;;;-0.13;58.73;98990.06;5049621;28;19935;-59
2022/03/05 07:59:03;;;;;;;;;;;;;;;-0.22;58.62;98990.31;5050725;28;19925;-60
2022/03/05 08:01:29;;;;;;;;;;;;;;;-0.14;58.37;99001.47;5049264;28;19982;-60
2022/03/05 08:03:54;;;;;;;;;;;;;;;-0.03;57.21;98998.44;5050580;28;20027;-64
2022/03/05 08:06:20;;;;;;;;;;;;;;;0.26;56.47;98993.41;5046334;28;19928;-62
2022/03/05 08:08:46;;;;;;;;;;;;;;;0.11;56.05;98982.97;5050485;28;19951;-60
2022/03/05 08:11:11;;;;;;;;;;;;;;;0.16;56.35;98997.09;5050694;28;19951;-58
2022/03/05 08:13:37;;;;;;;;;;;;;;;0.25;54.75;98984.78;5049320;28;19925;-62
2022/03/05 08:16:03;;;;;;;;;;;;;;;0.21;56.01;98986.13;5050506;28;19929;-60
2022/03/05 08:18:28;;;;;;;;;;;;;;;0.25;55.84;98999.63;5048509;28;19931;-60
2022/03/05 08:20:54;;;;;;;;;;;;;;;0.11;55.37;98994.22;5048671;28;19936;-59
2022/03/05 08:23:20;;;;;;;;;;;;;;;0.19;56.19;98988.91;5047701;28;19932;-60
2022/03/05 08:25:45;;;;;;;;;;;;;;;0.30;54.26;99029.38;5048595;28;19935;-58
2022/03/05 08:28:11;;;;;;;;;;;;;;;0.20;54.83;99008.75;5046228;28;19936;-60
2022/03/05 08:30:36;;;;;;;;;;;;;;;0.47;54.66;98996.06;5047009;28;19982;-61
2022/03/05 08:33:02;;;;;;;;;;;;;;;0.45;54.02;99009.31;5047790;28;19931;-61
2022/03/05 08:35:28;;;;;;;;;;;;;;;0.17;54.13;99010.94;5047400;28;20425;-62
2022/03/05 08:37:54;;;;;;;;;;;;;;;0.26;53.92;99015.06;5044574;28;19925;-61
2022/03/05 08:40:20;;;;;;;;;;;;;;;0.28;54.15;99009.69;5041181;28;20394;-60
2022/03/05 08:42:46;;;;;;;;;;;;;;;0.37;54.16;99022.44;5049370;28;19951;-64
2022/03/05 08:45:12;;;;;;;;;;;;;;;0.48;53.72;99005.53;5050726;28;19925;-63
2022/03/05 08:47:37;;;;;;;;;;;;;;;0.63;53.93;99008.13;5050796;28;19982;-62
2022/03/05 08:50:04;;;;;;;;;;;;;;;0.64;53.74;99009.72;5030107;28;20034;-62
2022/03/05 08:52:35;;;;;;;;;;;;;;;0.49;55.03;99020.19;5030362;28;19929;-61
2022/03/05 08:55:09;;;;;;;;;;;;;;;0.45;54.56;99024.97;5043870;28;19928;-64
2022/03/05 08:57:34;;;;;;;;;;;;;;;0.45;53.36;99032.78;5048570;28;19929;-61
2022/03/05 09:00:00;;;;;;;;;;;;;;;0.26;53.94;99046.34;5050458;28;19931;-63
2022/03/05 09:02:26;;;;;;;;;;;;;;;0.21;53.64;99020.03;5059038;28;19928;-63
2022/03/05 09:04:52;;;;;;;;;;;;;;;0.44;52.72;99015.53;5067735;28;19947;-61
2022/03/05 09:07:17;;;;;;;;;;;;;;;0.39;53.73;99032.69;5068612;28;20018;-63
2022/03/05 09:09:43;;;;;;;;;;;;;;;0.48;53.30;99023.00;5070326;28;20062;-62
2022/03/05 09:12:09;;;;;;;;;;;;;;;0.36;53.01;99048.72;5069112;28;19974;-61
2022/03/05 09:14:34;;;;;;;;;;;;;;;0.41;53.40;99048.97;5066296;28;19924;-63
2022/03/05 09:17:00;;;;;;;;;;;;;;;0.43;53.02;99034.75;5049201;28;19986;-60
2022/03/05 09:19:25;;;;;;;;;;;;;;;0.47;53.78;99055.25;5049502;28;20310;-62
2022/03/05 09:21:51;;;;;;;;;;;;;;;0.52;52.99;99039.88;5049976;28;19933;-60
2022/03/05 09:24:17;;;;;;;;;;;;;;;0.65;52.68;99047.88;5054063;28;19974;-61
2022/03/05 09:26:42;;;;;;;;;;;;;;;0.65;52.38;99033.03;5068192;28;20015;-62
2022/03/05 09:29:08;;;;;;;;;;;;;;;0.80;52.94;99030.41;5068547;28;19974;-62
2022/03/05 09:31:33;;;;;;;;;;;;;;;0.88;52.29;99039.91;5049454;28;19974;-62
2022/03/05 09:33:59;;;;;;;;;;;;;;;0.78;52.24;99039.41;5042398;28;19925;-62
2022/03/05 09:36:25;;;;;;;;;;;;;;;0.87;51.88;99072.22;5047966;28;19928;-65
2022/03/05 09:38:50;;;;;;;;;;;;;;;0.60;51.89;99055.44;5048912;28;19960;-61
2022/03/05 09:41:16;;;;;;;;;;;;;;;0.56;52.25;99047.19;5048412;28;20143;-61
2022/03/05 09:43:43;;;;;;;;;;;;;;;0.38;52.62;99046.72;5048395;28;20044;-63
2022/03/05 09:46:09;;;;;;;;;;;;;;;0.47;53.00;99063.06;5048067;28;19929;-62
2022/03/05 09:48:34;;;;;;;;;;;;;;;0.50;53.31;99047.06;5031731;28;20372;-64
2022/03/05 09:51:00;;;;;;;;;;;;;;;0.52;54.46;99052.91;5047712;28;19928;-62
2022/03/05 09:53:30;;;;;;;;;;;;;;;0.59;54.17;99045.97;5048603;28;19971;-64
2022/03/05 09:55:55;;;;;;;;;;;;;;;0.77;53.15;99093.41;5048176;28;19982;-60
2022/03/05 09:58:21;;;;;;;;;;;;;;;0.74;52.94;99054.63;5049117;28;19929;-63
2022/03/05 10:00:48;;;;;;;;;;;;;;;0.56;52.68;99051.56;5052018;28;19932;-61
2022/03/05 10:03:15;;;;;;;;;;;;;;;0.68;52.95;99063.97;5065253;28;19970;-62
2022/03/05 10:05:41;;;;;;;;;;;;;;;0.90;51.65;99066.66;5065042;28;19928;-62
2022/03/05 10:08:12;;;;;;;;;;;;;;;0.72;52.25;99077.47;5049995;28;20344;-62
2022/03/05 10:10:41;;;;;;;;;;;;;;;0.60;53.24;99058.84;5046300;28;20386;-61
2022/03/05 10:13:15;;;;;;;;;;;;;;;0.76;52.56;99062.25;5056926;28;19925;-61
2022/03/05 10:15:41;;;;;;;;;;;;;;;0.65;53.19;99059.13;5065021;28;19928;-62
2022/03/05 10:18:07;;;;;;;;;;;;;;;0.67;53.30;99066.75;5037965;28;20542;-64
2022/03/05 10:20:33;;;;;;;;;;;;;;;0.58;53.01;99060.81;5050130;28;20452;-63
2022/03/05 10:23:04;;;;;;;;;;;;;;;0.67;53.45;99072.78;5063565;28;19925;-62
2022/03/05 10:25:35;;;;;;;;;;;;;;;0.65;53.69;99069.56;5051411;28;19925;-64
2022/03/05 10:28:02;;;;;;;;;;;;;;;0.62;53.42;99069.94;5056586;28;19925;-62
2022/03/05 10:30:29;;;;;;;;;;;;;;;0.60;54.37;99065.88;5062525;28;20007;-63
2022/03/05 10:32:55;;;;;;;;;;;;;;;0.51;54.59;99078.19;5068575;28;19924;-62
2022/03/05 10:35:20;;;;;;;;;;;;;;;0.21;55.24;99059.94;5069004;28;19978;-64
2022/03/05 10:37:50;;;;;;;;;;;;;;;0.30;55.37;99083.31;5059333;28;19935;-61
2022/03/05 10:40:15;;;;;;;;;;;;;;;0.18;55.60;99104.59;5051770;28;20299;-62
2022/03/05 10:42:46;;;;;;;;;;;;;;;0.23;56.00;99085.81;5051128;28;19994;-63
2022/03/05 10:45:17;;;;;;;;;;;;;;;0.34;55.05;99087.97;5032041;28;20321;-56
2022/03/05 10:47:45;;;;;;;;;;;;;;;0.36;54.47;99085.22;5052700;28;19928;-60
2022/03/05 10:50:14;;;;;;;;;;;;;;;0.20;55.04;99088.78;5050113;28;19947;-62
2022/03/05 10:52:44;;;;;;;;;;;;;;;0.19;55.78;99087.97;5069141;28;19951;-59
2022/03/05 10:55:17;;;;;;;;;;;;;;;0.11;55.37;99072.41;5071402;28;19947;-59
2022/03/05 10:58:02;;;;;;;;;;;;;;;0.03;56.00;99098.56;5068541;28;19939;-60
2022/03/05 11:00:29;;;;;;;;;;;;;;;0.02;55.13;99075.25;5068881;28;20378;-60
2022/03/05 11:02:55;;;;;;;;;;;;;;;-0.11;55.90;99084.50;5067679;28;20399;-59
2022/03/05 11:05:20;;;;;;;;;;;;;;;-0.03;55.27;99074.00;5068678;28;19924;-61
2022/03/05 11:07:47;;;;;;;;;;;;;;;0.08;54.88;99064.13;5051583;28;19935;-58
2022/03/05 11:10:13;;;;;;;;;;;;;;;0.38;54.73;99052.75;5048855;28;19983;-63
2022/03/05 11:12:39;;;;;;;;;;;;;;;0.49;53.68;99066.31;5053218;28;19936;-60
2022/03/05 11:15:07;;;;;;;;;;;;;;;0.67;53.11;99064.94;5066259;28;19951;-60
2022/03/05 11:17:32;;;;;;;;;;;;;;;0.66;53.58;99084.22;5065177;28;19925;-59
2022/03/05 11:19:58;;;;;;;;;;;;;;;0.65;53.50;99095.66;5046902;28;19925;-61
2022/03/05 11:22:23;;;;;;;;;;;;;;;0.64;52.60;99088.78;5031645;28;19948;-58
2022/03/05 11:24:49;;;;;;;;;;;;;;;0.64;53.51;99083.56;5048197;28;19967;-60
2022/03/05 11:27:15;;;;;;;;;;;;;;;0.87;54.07;99073.03;5047044;28;19994;-61
2022/03/05 11:29:53;;;;;;;;;;;;;;;0.93;53.73;99078.53;5052273;28;19931;-60
2022/03/05 11:32:19;;;;;;;;;;;;;;;0.96;53.31;99081.56;5050900;28;19983;-58
2022/03/05 11:34:45;;;;;;;;;;;;;;;0.86;54.13;99086.28;5075471;28;19974;-61
2022/03/05 11:37:15;;;;;;;;;;;;;;;0.84;53.78;99073.41;5049237;28;20129;-60
2022/03/05 11:39:41;;;;;;;;;;;;;;;0.95;54.45;99082.56;5047877;28;20385;-59
2022/03/05 11:42:08;;;;;;;;;;;;;;;1.01;53.27;99076.63;5031783;28;20031;-61
2022/03/05 11:44:37;;;;;;;;;;;;;;;0.98;54.12;99095.25;5049120;28;20007;-61
2022/03/05 11:47:29;;;;;;;;;;;;;;;0.86;54.22;99086.28;5050933;28;20667;-61
2022/03/05 11:49:54;;;;;;;;;;;;;;;0.94;53.81;99088.75;5050205;28;20342;-62
2022/03/05 11:52:20;;;;;;;;;;;;;;;0.79;53.57;99091.41;5058941;28;19929;-60
2022/03/05 11:55:04;;;;;;;;;;;;;;;0.88;53.50;99094.72;5066909;28;19931;-62
2022/03/05 11:57:30;;;;;;;;;;;;;;;0.93;53.00;99100.22;5054605;28;19951;-61
2022/03/05 12:00:02;;;;;;;;;;;;;;;0.82;52.06;99098.84;5048333;28;19925;-59
2022/03/05 12:02:38;;;;;;;;;;;;;;;0.64;51.77;99122.69;5049856;28;20035;-58
2022/03/05 12:05:04;;;;;;;;;;;;;;;0.55;52.54;99100.31;5053472;28;20023;-59
2022/03/05 12:07:42;;;;;;;;;;;;;;;0.52;52.69;99134.56;5039160;28;19989;-60
2022/03/05 12:10:11;;;;;;;;;;;;;;;0.41;54.07;99108.94;5049878;28;20390;-63
2022/03/05 12:12:51;;;;;;;;;;;;;;;0.35;54.41;99102.63;5051437;28;19982;-58
2022/03/05 12:15:17;;;;;;;;;;;;;;;0.42;53.53;99121.00;5049806;28;19963;-60
2022/03/05 12:17:47;;;;;;;;;;;;;;;0.38;54.05;99107.50;5051017;28;20310;-65
2022/03/05 12:20:14;;;;;;;;;;;;;;;0.41;53.40;99104.53;5057468;28;20028;-59
2022/03/05 12:22:50;;;;;;;;;;;;;;;0.48;54.25;99099.41;5071320;28;19982;-57
2022/03/05 12:25:17;;;;;;;;;;;;;;;0.27;55.09;99107.94;5070512;28;19947;-60
2022/03/05 12:27:47;;;;;;;;;;;;;;;0.40;55.00;99107.31;5070633;28;19975;-60
2022/03/05 12:30:13;;;;;;;;;;;;;;;0.49;54.99;99100.22;5070838;28;19928;-63
2022/03/05 12:32:41;;;;;;;;;;;;;;;0.61;54.37;99111.81;5051949;28;19964;-59
2022/03/05 12:35:08;;;;;;;;;;;;;;;0.34;54.86;99121.06;5063253;28;19929;-60
2022/03/05 12:37:34;;;;;;;;;;;;;;;0.25;55.04;99103.88;5064496;28;19937;-58
2022/03/05 12:40:00;;;;;;;;;;;;;;;0.25;54.76;99125.56;5046677;28;19929;-57
2022/03/05 12:42:39;;;;;;;;;;;;;;;0.09;54.61;99126.50;5048911;28;19928;-62
2022/03/05 12:45:05;;;;;;;;;;;;;;;-0.01;54.93;99134.56;5048630;28;19924;-64
2022/03/05 12:47:32;;;;;;;;;;;;;;;-0.05;54.44;99158.56;5046463;28;19929;-60
2022/03/05 12:49:58;;;;;;;;;;;;;;;-0.06;54.88;99139.50;5047582;28;19981;-59